Tampa, FL

10:17 PM EDT die 15o October, anno 2018 (GMT -0400)
The University of Tampa | | Change Station

Elev 30 ft 27.95 °N, 82.46 °W | Updated 7 seconds ago

Overcast
Aequaliter Nubila
83.3 °F
Feels Like 90 °F
N
0
Ventus Variabilis Ventus from Magis Auster quam Eurus
Gusts 6.0 mph

Hodie
High -- | Low -- °F
--% Chance of Precip.
Yesterday
High -- | Low -- °F
Precip. -- in
Pressio 30.06 in
Visibilitas 10.0 milia passuum
Clouds Nubes Dispersae 8500 ft
Aequaliter Nubila 11000 ft
Index Caloris 90 °F
Frigus in quo Ros apparet 74 °F
Umor 73%
Rainfall 0.00 in
Snow Depth Not available.
7:30 AM 7:00 PM
Waxing Crescent, 44% visible
METAR KTPF 160035Z AUTO 00000KT 10SM SCT085 OVC110 28/22 A3006 RMK AO2
Pressio 30.06 in
Visibilitas 10.0 milia passuum
Clouds Nubes Dispersae 8500 ft
Aequaliter Nubila 11000 ft
Index Caloris 90 °F
Frigus in quo Ros apparet 74 °F
Umor 73%
Rainfall 0.00 in
Snow Depth Not available.
7:30 AM 7:00 PM
Waxing Crescent, 44% visible
METAR KTPF 160035Z AUTO 00000KT 10SM SCT085 OVC110 28/22 A3006 RMK AO2

Get Severe Weather Alerts

Thanks for signing up!

Be on the lookout for a verification email in your inbox.

You'll start receiving the daily forecast at 6 AM.

×

10-Day Weather Forecast

Almanac

Astronomy

Oct. 15, 2018 Rise Set
Actual Time
Civil Twilight
Nautical Twilight
Astronomical Twilight
Moon
Length Of Visible Light
Length of Day
Tomorrow will be .
, % of the Moon is Illuminated

Today's Extremes

State Highs State Lows

Community

WunderPhotos

Category 6

Welcome to Category 6. This is the collective home for Weather Underground's featured writeups by Dr. Jeff Masters (right), Bob Henson (left), Chris Burt, and other regular contributors.

Nearby

Air Quality

  Air Quality AQ Index Pollutant
Not available.

Snow Depth

Station Depth Elevation

Earthquake Activity

City Distance Mag. Time & Date
Minimum magnitude displayed is 2.5.

Coastal Water Temperatures

Locus Calor

Stations

Nearby Weather Stations

Station Location Temp Frigus Venti Frigus in quo Ros apparet Umor Ventus Precip. Elev Renovata Type
                   

Watches & Warnings

There are currently no watches in effect.